METAR Data
IDs: Format: Raw Decoded Include TAF

Data at: 0947 UTC 07 Dec 2021

KFXE 070853Z AUTO 31003KT 10SM CLR 19/19 A3005 RMK AO2 SLP178 T01890189 56008 TSNO $
KFXE 070800Z AUTO 00000KT 10SM CLR 19/19 A3005 RMK AO2 T01940194 TSNO $
KFXE 070753Z AUTO 00000KT 10SM BKN012 20/20 A3005 RMK AO2 SLP178 T02000200 TSNO $
KFXE 070723Z AUTO 30003KT 9SM BKN012 21/21 A3005 RMK AO2 T02110206 TSNO $
KFXE 070706Z 27003KT 2 1/2SM BR BKN012 21/20 A3006 RMK AO2 VIS 1 1/4V5 T02060200 $
KFXE 070653Z 00000KT 8SM OVC003 21/21 A3006 RMK AO2 SLP182 T02110211 $
KFXE 070643Z VRB03KT 8SM OVC003 22/21 A3006 RMK AO2 T02170211 $
KFXE 070636Z 29003KT 2SM BR OVC002 21/21 A3006 RMK AO2 T02110211 $
KFXE 070601Z 00000KT 3/4SM BR VV002 21/21 A3007 RMK AO2 T02110211 $
KFXE 070553Z 00000KT 1SM BR VV002 21/21 A3007 RMK AO2 SLP186 T02110211 10233 20206 58002 $
KFXE 070521Z 00000KT 3/4SM BR VV002 21/21 A3007 RMK AO2 T02110211 $
KFXE 070516Z 00000KT 1 3/4SM BR FEW002 21/21 A3007 RMK AO2 VIS 1/2V5 T02110211 $
KFXE 070505Z 00000KT 4SM BR SCT002 22/22 A3007 RMK AO2 T02170217 $
KFXE 070501Z 00000KT 2 1/2SM BR BKN002 22/22 A3008 RMK AO2 VIS 1 1/4V4 T02170217 $
KFXE 070453Z 00000KT 4SM BR BKN002 22/22 A3008 RMK AO2 SLP187 T02170217 402780206 $
KFXE 070446Z 00000KT 2 1/2SM BR BKN004 22/22 A3008 RMK AO2 T02170217 $
KFXE 070437Z 00000KT 10SM SCT004 22/21 A3008 RMK AO2 T02170211 $
KFXE 070353Z 00000KT 10SM CLR 21/21 A3008 RMK AO2 SLP189 T02110211 $
KFXE 070253Z 00000KT 10SM CLR 22/22 A3008 RMK AO2 SLP188 T02220217 50008 $
KFXE 070153Z 31003KT 10SM SCT045 BKN055 23/22 A3008 RMK AO2 SLP189 T02280222 $
KFXE 070053Z 00000KT 10SM BKN050 23/22 A3007 RMK AO2 SLP186 T02280222 $
KFXE 062353Z 00000KT 10SM CLR 23/22 A3006 RMK AO2 SLP180 60126 T02330222 10261 20228 53003 $
KFXE 062253Z 02003KT 10SM SCT095 23/22 A3005 RMK AO2 SLP178 T02330222 $
KFXE 062153Z AUTO 00000KT 10SM SCT070 OVC090 24/23 A3004 RMK AO2 RAE04 SLP174 P0001 T02390233 TSNO $
KFXE 062116Z 02004KT 10SM FEW017 OVC065 23/23 A3003 RMK AO2 RAE04 P0001 T02330228 $
KFXE 062053Z 24004KT 10SM -RA FEW005 BKN016 OVC029 23/23 A3005 RMK AO2 SLP176 P0083 60125 T02280228 56006 $
KFXE 062040Z 00000KT 2 1/2SM RA BR SCT005 BKN014 OVC030 23/23 A3005 RMK AO2 P0083 T02330228 $
KFXE 062023Z 17005KT 3/4SM +RA BR SCT005 OVC010 23/23 A3005 RMK AO2 P0058 T02330233 $
KFXE 062017Z 19004KT 1 3/4SM +RA BR BKN005 OVC012 24/23 A3005 RMK AO2 P0032 T02390233 $
KFXE 062014Z 18004KT 2 1/2SM +RA BR BKN004 BKN014 OVC045 24/23 A3005 RMK AO2 P0023 T02390228 $
KFXE 062009Z 18005KT 3SM -RA BR SCT004 BKN012 OVC041 24/23 A3005 RMK AO2 P0018 T02390228 $
KFXE 062006Z 21004KT 2SM RA BR FEW004 BKN018 OVC037 23/23 A3005 RMK AO2 P0018 T02330228 $
KFXE 061955Z VRB06KT 1SM +RA BR FEW005 BKN014 OVC060 23/23 A3005 RMK AO2 P0008 T02330228 $
KFXE 061953Z 14004KT 2SM +RA BR FEW005 BKN022 OVC060 24/23 A3005 RMK AO2 SLP177 P0042 T02390228 $
KFXE 061942Z 26006KT 2SM +RA BR SCT015 BKN020 OVC055 24/23 A3004 RMK AO2 P0013 T02440228 $
KFXE 061853Z 15011KT 10SM -RA FEW015 BKN060 BKN075 26/23 A3004 RMK AO2 RAB1757E06B52 SLP173 P0000 T02610228 $
KFXE 061821Z 15013KT 10SM FEW019 SCT026 BKN070 28/24 A3005 RMK AO2 RAB1757E06 P0000 T02780239 $
KFXE 061800Z 13011KT 10SM -RA BKN020 BKN030 OVC070 27/23 A3006 RMK AO2 RAB1757 P0000 T02670228 $
KFXE 061753Z 15008KT 10SM BKN035 27/23 A3006 RMK AO2 SLP182 60012 T02670228 10278 20222 58027 $
KFXE 061717Z 15012KT 10SM BKN025 OVC030 27/24 A3007 RMK AO2 T02720239 $
KFXE 061653Z 12007KT 10SM BKN014 BKN027 OVC036 27/23 A3009 RMK AO2 SLP192 T02670233 $
KFXE 061622Z VRB04KT 10SM BKN016 BKN020 OVC032 26/23 A3011 RMK AO2 T02610228 $
KFXE 061553Z 00000KT 10SM BKN014 26/23 A3013 RMK AO2 RAE02 SLP205 P0000 T02610233 $
KFXE 061513Z 33003KT 10SM FEW009 SCT026 OVC080 25/23 A3014 RMK AO2 RAE02 P0000 T02500233 $
KFXE 061453Z 00000KT 9SM -RA FEW018 SCT026 BKN060 25/23 A3014 RMK AO2 RAB53 SLP209 P0000 60012 T02500233 53012 $
KFXE 061445Z 00000KT 10SM FEW018 SCT026 OVC060 24/23 A3014 RMK AO2 T02440228 $
KFXE 061400Z 07004KT 10SM FEW006 SCT018 BKN023 24/23 A3014 RMK AO2 T02390228 $
KFXE 061353Z 01003KT 10SM SCT022 BKN034 OVC060 24/23 A3013 RMK AO2 RAB11E41 SLP205 P0000 T02440233 $
KFXE 061253Z 10005KT 8SM SCT022 BKN042 OVC065 23/23 A3012 RMK AO2 RAB04E41 SLP200 P0012 T02280228 $
KFXE 061237Z 08006KT 6SM -RA BR FEW012 BKN050 OVC065 23/22 A3011 RMK AO2 RAB04 P0012 T02280222 $
KFXE 061223Z 11007KT 8SM -RA FEW012 BKN027 OVC060 23/22 A3012 RMK AO2 RAB04 P0010 T02280222 $
KFXE 061214Z 10008KT 3SM +RA BR FEW009 BKN032 OVC050 23/22 A3011 RMK AO2 RAB04 P0009 T02280222 $
KFXE 061210Z 13007KT 4SM +RA BR BKN014 BKN029 OVC055 23/22 A3011 RMK AO2 RAB04 P0007 T02280222 $
KFXE 061153Z 00000KT 10SM FEW024 BKN048 OVC065 22/22 A3011 RMK AO2 SLP197 60003 70003 T02220217 10228 20206 53008 $
KFXE 061053Z 08003KT 10SM SCT032 BKN070 22/21 A3009 RMK AO2 RAB30E43 SLP191 P0000 T02170211 $
KFXE 060953Z AUTO 00000KT 10SM FEW017 SCT038 BKN060 22/21 A3008 RMK AO2 RAB30E53 SLP187 P0003 T02170211 TSNO $
KFXE 060853Z AUTO 00000KT 10SM BKN060 OVC070 21/20 A3008 RMK AO2 SLP189 T02110200 56010 TSNO $
KFXE 060753Z AUTO 11003KT 10SM FEW085 22/20 A3008 RMK AO2 SLP189 T02170200 TSNO $
KFXE 060653Z AUTO 00000KT 10SM BKN055 OVC070 21/20 A3009 RMK AO2 SLP193 T02110200 TSNO $
KFXE 060553Z AUTO 00000KT 10SM FEW038 BKN065 22/20 A3011 RMK AO2 SLP198 T02170200 10233 20206 58001 TSNO $
KFXE 060453Z 00000KT 10SM FEW036 BKN055 22/20 A3011 RMK AO2 SLP200 T02170200 402830178 $
KFXE 060353Z 00000KT 10SM SCT040 BKN060 21/19 A3012 RMK AO2 SLP201 T02110194 $
KFXE 060253Z 00000KT 10SM CLR 22/20 A3011 RMK AO2 SLP199 T02170200 50007 $
KFXE 060153Z 00000KT 10SM CLR 22/20 A3011 RMK AO2 SLP200 T02170200
KFXE 060053Z 00000KT 10SM SCT021 23/21 A3010 RMK AO2 SLP195 T02280206
KFXE 052353Z 08005KT 10SM FEW022 23/21 A3009 RMK AO2 SLP192 60000 T02280206 10283 20228 53006
KFXE 052253Z 10006KT 10SM SCT060 24/19 A3008 RMK AO2 SLP188 T02390194
KFXE 052153Z 08010KT 10SM SCT060 26/21 A3008 RMK AO2 SLP187 T02560206